X  Κλείσε Στοιχεία αεροπορικών μετεωρολογικών δεδομένων METAR     KDNN Dalton Municipal Airport
θερμοκρασία
72°F θερμοκρασία
72°F Σημείο δρόσου
100% Υγρασία



Ανεμος
3 MPH
5 KM/H
1 M/S
3 KTS



Ηρεμία
V
Τρέχουσες συνθήκες

ελαφρός βροχή, ομίχλη ελαφρός βροχή, ομίχλη
πίεση 1021 (hPa) - 30.15 (inHg)
Ορατότητα 3 (μίλι) - 4.8 (km)
Aεροδρόμιο
Κωδικός αεροδρομίου KDNN

Τοποθεσία: Dalton Municipal Airport
Απόσταση: 34 (mi)

Metar:
KDNN 250855Z AUTO VRB03KT 3SM -RA BR SCT006 OVC011 22/22 A3015 RMK AO2 P0000 T02240224

ώρα: 07-25-2024 04:55 EDT